createdAt,value
2022-07-28T00:00:25.216Z,18.95
2022-07-28T00:01:26.921Z,18.95
2022-07-28T00:02:29.645Z,18.93
2022-07-28T00:03:31.398Z,18.92
2022-07-28T00:04:34.595Z,18.89
2022-07-28T00:05:36.302Z,18.89
2022-07-28T00:06:40.222Z,18.87
2022-07-28T00:07:41.860Z,18.87
2022-07-28T00:08:44.380Z,18.86
2022-07-28T00:09:46.036Z,18.85
2022-07-28T00:10:48.636Z,18.84
2022-07-28T00:11:54.298Z,18.84
2022-07-28T00:12:57.388Z,18.83
2022-07-28T00:13:59.091Z,18.82
2022-07-28T00:15:02.057Z,18.82
2022-07-28T00:16:04.090Z,18.81
2022-07-28T00:17:06.815Z,18.81
2022-07-28T00:18:08.499Z,18.80
2022-07-28T00:19:11.109Z,18.79
2022-07-28T00:20:14.161Z,18.78
2022-07-28T00:21:15.907Z,18.77
2022-07-28T00:22:19.945Z,18.77
2022-07-28T00:23:21.571Z,18.76
2022-07-28T00:24:24.393Z,18.75
2022-07-28T00:25:26.363Z,18.75
2022-07-28T00:26:28.972Z,18.74
2022-07-28T00:27:30.511Z,18.73
2022-07-28T00:28:33.116Z,18.72
2022-07-28T00:29:49.211Z,18.74
2022-07-28T00:30:55.203Z,18.74
2022-07-28T00:31:56.964Z,18.72
2022-07-28T00:32:59.500Z,18.70
2022-07-28T00:34:01.123Z,18.71
2022-07-28T00:35:03.913Z,18.70
2022-07-28T00:36:11.439Z,18.71
2022-07-28T00:37:15.147Z,18.68
2022-07-28T00:38:18.279Z,18.67
2022-07-28T00:39:20.934Z,18.66
2022-07-28T00:40:22.561Z,18.67
2022-07-28T00:41:25.235Z,18.67
2022-07-28T00:42:26.875Z,18.67
2022-07-28T00:43:29.649Z,18.66
2022-07-28T00:44:32.704Z,18.66
2022-07-28T00:45:34.457Z,18.66
2022-07-28T00:46:37.620Z,18.66
2022-07-28T00:47:39.289Z,18.67
2022-07-28T00:48:45.873Z,18.67
2022-07-28T00:49:50.241Z,18.68
2022-07-28T00:50:52.641Z,18.67
2022-07-28T00:51:55.534Z,18.66
2022-07-28T00:52:58.161Z,18.67
2022-07-28T00:54:02.320Z,18.66
2022-07-28T00:55:05.359Z,18.65
2022-07-28T00:56:08.670Z,18.64
2022-07-28T00:57:10.278Z,18.64
2022-07-28T00:58:13.432Z,18.63
2022-07-28T00:59:15.027Z,18.63
2022-07-28T01:00:17.860Z,18.63
2022-07-28T01:01:20.158Z,18.63
2022-07-28T01:02:23.368Z,18.61
2022-07-28T01:03:26.247Z,18.61
2022-07-28T01:04:29.559Z,18.61
2022-07-28T01:05:44.108Z,18.61
2022-07-28T01:07:03.532Z,18.58
2022-07-28T01:08:13.264Z,18.58
2022-07-28T01:09:32.392Z,18.57
2022-07-28T01:10:45.120Z,18.55
2022-07-28T01:11:59.009Z,18.55
2022-07-28T01:13:07.002Z,18.54
2022-07-28T01:14:12.433Z,18.51
2022-07-28T01:15:21.245Z,18.49
2022-07-28T01:16:24.338Z,18.49
2022-07-28T01:17:32.989Z,18.49
2022-07-28T01:18:44.549Z,18.47
2022-07-28T01:19:50.448Z,18.44
2022-07-28T01:20:56.043Z,18.42
2022-07-28T01:22:00.430Z,18.40
2022-07-28T01:23:14.265Z,18.38
2022-07-28T01:24:24.943Z,18.37
2022-07-28T01:25:40.100Z,18.35
2022-07-28T01:27:00.666Z,18.33
2022-07-28T01:28:16.074Z,18.33
2022-07-28T01:29:32.230Z,18.31
2022-07-28T01:30:42.127Z,18.28
2022-07-28T01:31:48.461Z,18.26
2022-07-28T01:32:58.578Z,18.23
2022-07-28T01:34:08.103Z,18.21
2022-07-28T01:35:15.018Z,18.19
2022-07-28T01:36:20.012Z,18.17
2022-07-28T01:37:27.607Z,18.16
2022-07-28T01:38:32.900Z,18.14
2022-07-28T01:39:37.640Z,18.13
2022-07-28T01:40:43.926Z,18.11
2022-07-28T01:41:47.591Z,18.10
2022-07-28T01:42:53.479Z,18.08
2022-07-28T01:43:58.840Z,18.07
2022-07-28T01:45:03.060Z,18.03
2022-07-28T01:46:07.300Z,18.03
2022-07-28T01:47:11.632Z,18.04
2022-07-28T01:48:16.929Z,18.02
2022-07-28T01:49:22.248Z,18.04
2022-07-28T01:50:26.458Z,18.02
2022-07-28T01:51:31.355Z,18.02
2022-07-28T01:52:34.669Z,18.02
2022-07-28T01:53:39.254Z,18.01
2022-07-28T01:54:45.549Z,18.02
2022-07-28T01:55:51.422Z,18.02
2022-07-28T01:56:55.662Z,17.99
2022-07-28T01:57:59.066Z,17.98
2022-07-28T01:59:06.077Z,17.97
2022-07-28T02:00:12.112Z,17.96
2022-07-28T02:01:18.158Z,17.97
2022-07-28T02:02:22.465Z,17.95
2022-07-28T02:03:26.631Z,17.92
2022-07-28T02:04:29.836Z,17.92
2022-07-28T02:05:34.617Z,17.90
2022-07-28T02:06:39.187Z,17.91
2022-07-28T02:07:43.282Z,17.88
2022-07-28T02:08:46.942Z,17.86
2022-07-28T02:09:50.814Z,17.85
2022-07-28T02:11:13.438Z,17.84
2022-07-28T02:12:18.645Z,17.82
2022-07-28T02:13:20.944Z,17.80
2022-07-28T02:14:25.750Z,17.80
2022-07-28T02:15:29.647Z,17.79
2022-07-28T02:16:33.660Z,17.78
2022-07-28T02:17:37.134Z,17.80
2022-07-28T02:18:40.840Z,17.79
2022-07-28T02:19:44.958Z,17.78
2022-07-28T02:20:47.711Z,17.78
2022-07-28T02:21:50.097Z,17.77
2022-07-28T02:22:54.300Z,17.77
2022-07-28T02:23:57.216Z,17.77
2022-07-28T02:25:00.110Z,17.78
2022-07-28T02:26:05.237Z,17.78
2022-07-28T02:27:11.725Z,17.78
2022-07-28T02:28:15.640Z,17.79
2022-07-28T02:29:49.262Z,17.79
2022-07-28T02:30:50.964Z,17.78
2022-07-28T02:32:01.214Z,17.76
2022-07-28T02:33:09.094Z,17.74
2022-07-28T02:34:14.898Z,17.73
2022-07-28T02:35:29.038Z,17.74
2022-07-28T02:36:41.353Z,17.73
2022-07-28T02:37:55.615Z,17.71
2022-07-28T02:39:02.928Z,17.69
2022-07-28T02:40:10.274Z,17.69
2022-07-28T02:41:16.315Z,17.69
2022-07-28T02:42:23.796Z,17.67
2022-07-28T02:43:48.970Z,17.68
2022-07-28T02:44:56.810Z,17.68
2022-07-28T02:46:11.250Z,17.67
2022-07-28T02:47:19.016Z,17.67
2022-07-28T02:48:27.142Z,17.68
2022-07-28T02:49:32.473Z,17.67
2022-07-28T02:50:35.417Z,17.67
2022-07-28T02:51:37.930Z,17.66
2022-07-28T02:52:43.972Z,17.63
2022-07-28T02:53:46.970Z,17.60
2022-07-28T02:54:51.906Z,17.59
2022-07-28T02:55:55.679Z,17.57
2022-07-28T02:56:59.099Z,17.57
2022-07-28T02:58:02.101Z,17.55
2022-07-28T02:59:10.138Z,17.53
2022-07-28T03:00:14.202Z,17.53
2022-07-28T03:01:18.845Z,17.52
2022-07-28T03:02:24.048Z,17.49
2022-07-28T03:03:26.303Z,17.47
2022-07-28T03:04:47.517Z,17.45
2022-07-28T03:05:50.838Z,17.44
2022-07-28T03:06:52.417Z,17.42
2022-07-28T03:07:56.544Z,17.40
2022-07-28T03:08:58.283Z,17.39
2022-07-28T03:10:01.620Z,17.39
2022-07-28T03:11:08.586Z,17.38
2022-07-28T03:12:11.931Z,17.35
2022-07-28T03:13:14.278Z,17.34
2022-07-28T03:14:17.047Z,17.34
2022-07-28T03:15:19.065Z,17.31
2022-07-28T03:16:21.659Z,17.29
2022-07-28T03:17:26.017Z,17.27
2022-07-28T03:18:29.055Z,17.26
2022-07-28T03:19:30.677Z,17.23
2022-07-28T03:20:33.522Z,17.21
2022-07-28T03:21:35.121Z,17.21
2022-07-28T03:22:37.791Z,17.18
2022-07-28T03:23:43.096Z,17.17
2022-07-28T03:24:48.961Z,17.16
2022-07-28T03:25:55.867Z,17.15
2022-07-28T03:27:02.451Z,17.14
2022-07-28T03:28:08.147Z,17.14
2022-07-28T03:29:11.143Z,17.12
2022-07-28T03:30:16.204Z,17.09
2022-07-28T03:31:20.540Z,17.08
2022-07-28T03:32:26.665Z,17.07
2022-07-28T03:33:29.946Z,17.09
2022-07-28T03:34:36.508Z,17.08
2022-07-28T03:35:43.533Z,17.08
2022-07-28T03:36:50.682Z,17.07
2022-07-28T03:37:55.989Z,17.06
2022-07-28T03:39:01.600Z,17.05
2022-07-28T03:40:04.869Z,17.04
2022-07-28T03:41:10.465Z,17.04
2022-07-28T03:42:12.834Z,17.03
2022-07-28T03:43:17.544Z,17.03
2022-07-28T03:44:27.769Z,17.02
2022-07-28T03:45:31.938Z,17.02
2022-07-28T03:46:34.029Z,17.00
2022-07-28T03:47:36.652Z,17.00
2022-07-28T03:48:39.958Z,16.98
2022-07-28T03:49:46.561Z,16.98
2022-07-28T03:50:48.383Z,16.97
2022-07-28T03:51:51.128Z,16.96
2022-07-28T03:52:53.800Z,16.96
2022-07-28T03:53:56.443Z,16.97
2022-07-28T03:54:58.107Z,16.98
2022-07-28T03:56:00.658Z,16.98
2022-07-28T03:57:02.319Z,16.97
2022-07-28T03:58:04.883Z,16.97
2022-07-28T03:59:06.545Z,16.96
2022-07-28T04:00:10.618Z,16.96
2022-07-28T04:01:15.372Z,16.95
2022-07-28T04:02:18.064Z,16.95
2022-07-28T04:03:42.429Z,16.95
2022-07-28T04:04:44.267Z,16.95
2022-07-28T04:05:47.358Z,16.95
2022-07-28T04:06:49.978Z,16.95
2022-07-28T04:07:52.582Z,16.96
2022-07-28T04:08:54.209Z,16.94
2022-07-28T04:09:56.723Z,16.96
2022-07-28T04:10:58.401Z,16.96
2022-07-28T04:12:00.905Z,16.98
2022-07-28T04:13:02.639Z,16.98
2022-07-28T04:14:05.449Z,17.00
2022-07-28T04:15:12.658Z,17.00
2022-07-28T04:16:15.249Z,17.01
2022-07-28T04:17:16.898Z,17.02
2022-07-28T04:18:19.547Z,17.02
2022-07-28T04:19:22.084Z,17.03
2022-07-28T04:20:26.398Z,17.04
2022-07-28T04:21:28.987Z,17.05
2022-07-28T04:22:30.563Z,17.05
2022-07-28T04:23:33.650Z,17.05
2022-07-28T04:24:35.237Z,17.05
2022-07-28T04:25:37.877Z,17.04
2022-07-28T04:26:41.864Z,17.03
2022-07-28T04:27:47.142Z,17.05
2022-07-28T04:28:48.762Z,17.05
2022-07-28T04:29:51.317Z,17.05
2022-07-28T04:30:53.394Z,17.06
2022-07-28T04:31:56.013Z,17.05
2022-07-28T04:32:58.234Z,17.06
2022-07-28T04:34:00.955Z,17.06
2022-07-28T04:35:02.624Z,17.07
2022-07-28T04:36:07.173Z,17.08
2022-07-28T04:37:12.664Z,17.08
2022-07-28T04:38:17.712Z,17.08
2022-07-28T04:39:20.302Z,17.08
2022-07-28T04:40:21.905Z,17.08
2022-07-28T04:41:24.440Z,17.08
2022-07-28T04:42:26.626Z,17.10
2022-07-28T04:43:29.267Z,17.10
2022-07-28T04:44:30.832Z,17.10
2022-07-28T04:45:33.579Z,17.09
2022-07-28T04:46:35.810Z,17.09
2022-07-28T04:47:38.877Z,17.08
2022-07-28T04:48:42.318Z,17.08
2022-07-28T04:49:44.109Z,17.09
2022-07-28T04:50:46.934Z,17.10
2022-07-28T04:51:51.721Z,17.12
2022-07-28T04:52:54.787Z,17.15
2022-07-28T04:53:56.372Z,17.17
2022-07-28T04:54:58.973Z,17.18
2022-07-28T04:56:00.573Z,17.19
2022-07-28T04:57:10.264Z,17.22
2022-07-28T04:58:13.014Z,17.24
2022-07-28T04:59:15.981Z,17.28
2022-07-28T05:00:18.669Z,17.28
2022-07-28T05:01:21.673Z,17.29
2022-07-28T05:02:23.674Z,17.29
2022-07-28T05:03:26.219Z,17.30
2022-07-28T05:04:27.937Z,17.32
2022-07-28T05:05:30.804Z,17.33
2022-07-28T05:06:32.380Z,17.34
2022-07-28T05:07:37.338Z,17.34
2022-07-28T05:08:39.936Z,17.33
2022-07-28T05:09:41.514Z,17.34
2022-07-28T05:10:44.082Z,17.37
2022-07-28T05:11:45.726Z,17.37
2022-07-28T05:12:49.219Z,17.40
2022-07-28T05:13:50.810Z,17.42
2022-07-28T05:14:53.442Z,17.41
2022-07-28T05:15:56.054Z,17.44
2022-07-28T05:16:57.691Z,17.45
2022-07-28T05:18:01.118Z,17.46
2022-07-28T05:19:03.416Z,17.47
2022-07-28T05:20:08.416Z,17.48
2022-07-28T05:21:10.160Z,17.50
2022-07-28T05:22:12.705Z,17.52
2022-07-28T05:23:17.529Z,17.54
2022-07-28T05:24:20.238Z,17.56
2022-07-28T05:25:23.481Z,17.57
2022-07-28T05:26:26.834Z,17.60
2022-07-28T05:27:28.488Z,17.65
2022-07-28T05:28:31.253Z,17.74
2022-07-28T05:29:37.655Z,17.82
2022-07-28T05:30:50.139Z,17.92
2022-07-28T05:31:52.020Z,18.03
2022-07-28T05:32:59.140Z,18.11
2022-07-28T05:34:00.757Z,18.20
2022-07-28T05:35:03.390Z,18.29
2022-07-28T05:36:06.676Z,18.38
2022-07-28T05:37:08.809Z,18.47
2022-07-28T05:38:11.769Z,18.57
2022-07-28T05:39:16.040Z,18.67
2022-07-28T05:40:19.095Z,18.77
2022-07-28T05:41:20.714Z,18.85
2022-07-28T05:42:25.440Z,18.95
2022-07-28T05:43:26.997Z,19.05
2022-07-28T05:44:30.295Z,19.13
2022-07-28T05:45:34.285Z,19.21
2022-07-28T05:46:36.873Z,19.28
2022-07-28T05:47:43.791Z,19.34
2022-07-28T05:48:46.860Z,19.39
2022-07-28T05:49:48.568Z,19.44
2022-07-28T05:50:52.170Z,19.48
2022-07-28T05:51:53.804Z,19.54
2022-07-28T05:52:56.450Z,19.59
2022-07-28T05:53:58.141Z,19.65
2022-07-28T05:55:02.098Z,19.72
2022-07-28T05:56:04.994Z,19.79
2022-07-28T05:57:06.737Z,19.87
2022-07-28T05:58:09.286Z,19.95
2022-07-28T05:59:10.918Z,20.03
2022-07-28T06:00:16.296Z,20.09
2022-07-28T06:01:17.957Z,20.14
2022-07-28T06:02:20.675Z,20.20
2022-07-28T06:03:22.281Z,20.25
2022-07-28T06:04:26.109Z,20.30
2022-07-28T06:05:30.730Z,20.31
2022-07-28T06:06:33.301Z,20.34
2022-07-28T06:07:42.974Z,20.41
2022-07-28T06:08:48.143Z,20.43
2022-07-28T06:09:49.794Z,20.44
2022-07-28T06:11:01.949Z,20.45
2022-07-28T06:12:05.446Z,20.50
2022-07-28T06:13:07.008Z,20.55
2022-07-28T06:14:09.555Z,20.56
2022-07-28T06:15:13.690Z,20.59
2022-07-28T06:16:16.566Z,20.61
2022-07-28T06:17:18.439Z,20.59
2022-07-28T06:18:22.169Z,20.56
2022-07-28T06:19:24.779Z,20.56
2022-07-28T06:20:27.810Z,20.55
2022-07-28T06:21:32.841Z,20.58
2022-07-28T06:22:41.169Z,20.65
2022-07-28T06:23:43.787Z,20.71
2022-07-28T06:24:45.401Z,20.76
2022-07-28T06:25:49.063Z,20.82
2022-07-28T06:26:53.370Z,20.89
2022-07-28T06:27:57.806Z,20.94
2022-07-28T06:29:00.414Z,20.96
2022-07-28T06:30:02.013Z,20.98
2022-07-28T06:31:04.664Z,20.96
2022-07-28T06:32:06.816Z,20.96
2022-07-28T06:33:12.784Z,20.93
2022-07-28T06:34:19.413Z,20.90
2022-07-28T06:35:25.890Z,20.89
2022-07-28T06:36:27.517Z,20.90
2022-07-28T06:37:30.153Z,20.91
2022-07-28T06:38:32.910Z,20.89
2022-07-28T06:39:35.528Z,20.90
2022-07-28T06:40:37.427Z,20.91
2022-07-28T06:41:41.985Z,20.90
2022-07-28T06:42:45.627Z,20.90
2022-07-28T06:43:48.199Z,20.89
2022-07-28T06:44:59.059Z,20.94
2022-07-28T06:46:02.374Z,21.02
2022-07-28T06:47:05.037Z,21.10
2022-07-28T06:48:07.927Z,21.16
2022-07-28T06:49:10.706Z,21.23
2022-07-28T06:50:25.887Z,21.30
2022-07-28T06:51:29.810Z,21.34
2022-07-28T06:52:32.040Z,21.41
2022-07-28T06:53:34.937Z,21.50
2022-07-28T06:54:38.055Z,21.59
2022-07-28T06:55:41.238Z,21.70
2022-07-28T06:56:43.010Z,21.79
2022-07-28T06:57:54.243Z,21.88
2022-07-28T06:58:56.817Z,21.94
2022-07-28T06:59:58.472Z,22.00
2022-07-28T07:01:02.506Z,21.99
2022-07-28T07:02:04.348Z,21.97
2022-07-28T07:03:09.846Z,21.99
2022-07-28T07:04:11.884Z,22.05
2022-07-28T07:05:14.856Z,22.09
2022-07-28T07:06:16.447Z,22.16
2022-07-28T07:07:19.130Z,22.20
2022-07-28T07:08:20.884Z,22.22
2022-07-28T07:09:23.594Z,22.24
2022-07-28T07:10:25.332Z,22.25
2022-07-28T07:11:27.923Z,22.26
2022-07-28T07:12:29.811Z,22.28
2022-07-28T07:13:34.675Z,22.27
2022-07-28T07:14:36.352Z,22.26
2022-07-28T07:15:38.930Z,22.25
2022-07-28T07:16:40.737Z,22.22
2022-07-28T07:17:43.810Z,22.19
2022-07-28T07:18:55.941Z,22.14
2022-07-28T07:19:57.645Z,22.12
2022-07-28T07:21:00.243Z,22.11
2022-07-28T07:22:01.864Z,22.05
2022-07-28T07:23:04.477Z,22.02
2022-07-28T07:24:07.436Z,22.03
2022-07-28T07:25:11.193Z,22.03
2022-07-28T07:26:13.942Z,22.06
2022-07-28T07:27:15.648Z,22.07
2022-07-28T07:28:18.267Z,22.08
2022-07-28T07:29:22.802Z,22.12
2022-07-28T07:30:25.447Z,22.15
2022-07-28T07:31:28.155Z,22.21
2022-07-28T07:32:29.866Z,22.26
2022-07-28T07:33:32.461Z,22.32
2022-07-28T07:34:34.104Z,22.36
2022-07-28T07:35:37.797Z,22.39
2022-07-28T07:36:39.367Z,22.36
2022-07-28T07:37:42.006Z,22.31
2022-07-28T07:38:45.498Z,22.28
2022-07-28T07:39:48.032Z,22.28
2022-07-28T07:40:51.162Z,22.28
2022-07-28T07:41:52.791Z,22.29
2022-07-28T07:42:55.389Z,22.28
2022-07-28T07:43:56.960Z,22.28
2022-07-28T07:45:01.614Z,22.26
2022-07-28T07:46:04.325Z,22.22
2022-07-28T07:47:08.698Z,22.19
2022-07-28T07:48:12.846Z,22.17
2022-07-28T07:49:16.959Z,22.16
2022-07-28T07:50:19.771Z,22.16
2022-07-28T07:51:22.856Z,22.14
2022-07-28T07:52:25.392Z,22.11
2022-07-28T07:53:28.044Z,22.11
2022-07-28T07:54:29.698Z,22.12
2022-07-28T07:55:37.334Z,22.16
2022-07-28T07:56:39.537Z,22.18
2022-07-28T07:57:42.309Z,22.21
2022-07-28T07:58:43.953Z,22.23
2022-07-28T07:59:46.498Z,22.25
2022-07-28T08:00:50.586Z,22.27
2022-07-28T08:01:54.745Z,22.28
2022-07-28T08:02:57.753Z,22.28
2022-07-28T08:04:00.930Z,22.28
2022-07-28T08:05:03.785Z,22.29
2022-07-28T08:06:06.806Z,22.28
2022-07-28T08:07:10.857Z,22.30
2022-07-28T08:08:14.812Z,22.31
2022-07-28T08:09:18.668Z,22.31
2022-07-28T08:10:20.299Z,22.29
2022-07-28T08:11:23.026Z,22.27
2022-07-28T08:12:25.555Z,22.26
2022-07-28T08:13:29.826Z,22.24
2022-07-28T08:14:32.670Z,22.23
2022-07-28T08:15:35.795Z,22.23
2022-07-28T08:16:39.940Z,22.22
2022-07-28T08:17:41.677Z,22.23
2022-07-28T08:18:44.788Z,22.22
2022-07-28T08:19:46.448Z,22.24
2022-07-28T08:20:54.814Z,22.23
2022-07-28T08:21:56.400Z,22.22
2022-07-28T08:22:59.215Z,22.21
2022-07-28T08:24:01.846Z,22.17
2022-07-28T08:25:03.737Z,22.19
2022-07-28T08:26:06.467Z,22.23
2022-07-28T08:27:08.473Z,22.27
2022-07-28T08:28:11.453Z,22.35
2022-07-28T08:29:13.713Z,22.41
2022-07-28T08:30:23.035Z,22.46
2022-07-28T08:31:25.457Z,22.49
2022-07-28T08:32:29.418Z,22.53
2022-07-28T08:33:31.027Z,22.57
2022-07-28T08:34:34.123Z,22.62
2022-07-28T08:35:36.887Z,22.64
2022-07-28T08:36:38.481Z,22.66
2022-07-28T08:37:41.177Z,22.67
2022-07-28T08:38:42.965Z,22.69
2022-07-28T08:39:45.624Z,22.73
2022-07-28T08:40:49.967Z,22.77
2022-07-28T08:41:56.237Z,22.80
2022-07-28T08:43:03.798Z,22.82
2022-07-28T08:44:09.429Z,22.82
2022-07-28T08:45:11.988Z,22.82
2022-07-28T08:46:16.475Z,22.84
2022-07-28T08:47:20.578Z,22.84
2022-07-28T08:48:27.219Z,22.88
2022-07-28T08:49:31.035Z,22.89
2022-07-28T08:50:33.525Z,22.91
2022-07-28T08:51:38.767Z,22.91
2022-07-28T08:52:41.712Z,22.89
2022-07-28T08:53:49.650Z,22.88
2022-07-28T08:54:54.621Z,22.90
2022-07-28T08:56:01.219Z,22.93
2022-07-28T08:57:04.918Z,22.95
2022-07-28T08:58:07.325Z,22.95
2022-07-28T08:59:09.942Z,22.96
2022-07-28T09:00:13.789Z,22.97
2022-07-28T09:01:18.073Z,22.96
2022-07-28T09:02:21.514Z,22.95
2022-07-28T09:03:26.087Z,22.94
2022-07-28T09:04:29.031Z,22.91
2022-07-28T09:05:30.865Z,22.92
2022-07-28T09:06:33.617Z,22.93
2022-07-28T09:07:38.223Z,22.93
2022-07-28T09:08:40.871Z,22.94
2022-07-28T09:09:47.855Z,22.91
2022-07-28T09:10:50.950Z,22.88
2022-07-28T09:11:52.988Z,22.85
2022-07-28T09:12:55.779Z,22.84
2022-07-28T09:13:57.582Z,22.86
2022-07-28T09:15:02.087Z,22.89
2022-07-28T09:16:04.260Z,22.91
2022-07-28T09:17:06.964Z,22.93
2022-07-28T09:18:08.819Z,22.96
2022-07-28T09:19:12.797Z,22.99
2022-07-28T09:20:16.238Z,23.00
2022-07-28T09:21:19.154Z,23.01
2022-07-28T09:22:20.835Z,23.03
2022-07-28T09:23:41.798Z,23.03
2022-07-28T09:24:45.769Z,23.01
2022-07-28T09:25:48.451Z,22.99
2022-07-28T09:26:59.854Z,22.98
2022-07-28T09:28:08.784Z,22.99
2022-07-28T09:29:11.355Z,23.00
2022-07-28T09:30:13.214Z,23.04
2022-07-28T09:31:17.186Z,23.07
2022-07-28T09:32:21.502Z,23.09
2022-07-28T09:33:42.585Z,23.09
2022-07-28T09:34:51.890Z,23.07
2022-07-28T09:35:55.505Z,23.08
2022-07-28T09:36:58.160Z,23.06
2022-07-28T09:38:00.255Z,23.09
2022-07-28T09:39:02.899Z,23.11
2022-07-28T09:40:11.835Z,23.16
2022-07-28T09:41:18.607Z,23.19
2022-07-28T09:42:21.761Z,23.21
2022-07-28T09:43:32.168Z,23.26
2022-07-28T09:44:34.968Z,23.28
2022-07-28T09:45:36.700Z,23.30
2022-07-28T09:46:39.458Z,23.33
2022-07-28T09:47:41.403Z,23.34
2022-07-28T09:48:53.726Z,23.35
2022-07-28T09:49:58.030Z,23.36
2022-07-28T09:51:11.959Z,23.33
2022-07-28T09:52:14.669Z,23.33
2022-07-28T09:53:23.008Z,23.35
2022-07-28T09:54:26.245Z,23.38
2022-07-28T09:55:28.049Z,23.40
2022-07-28T09:56:32.471Z,23.43
2022-07-28T09:57:36.862Z,23.48
2022-07-28T09:58:42.051Z,23.50
2022-07-28T09:59:49.430Z,23.49
2022-07-28T10:01:04.195Z,23.51
2022-07-28T10:02:06.849Z,23.50
2022-07-28T10:03:11.505Z,23.50
2022-07-28T10:04:14.265Z,23.52
2022-07-28T10:05:17.444Z,23.56
2022-07-28T10:06:27.326Z,23.58
2022-07-28T10:07:34.433Z,23.59
2022-07-28T10:08:42.205Z,23.60
2022-07-28T10:09:58.283Z,23.59
2022-07-28T10:11:00.671Z,23.59
2022-07-28T10:12:21.664Z,23.59
2022-07-28T10:13:23.378Z,23.59
2022-07-28T10:14:33.708Z,23.60
2022-07-28T10:15:55.716Z,23.59
2022-07-28T10:17:05.883Z,23.61
2022-07-28T10:18:07.998Z,23.65
2022-07-28T10:19:15.334Z,23.71
2022-07-28T10:20:19.046Z,23.77
2022-07-28T10:21:24.913Z,23.81
2022-07-28T10:22:28.797Z,23.85
2022-07-28T10:23:31.573Z,23.87
2022-07-28T10:24:39.949Z,23.92
2022-07-28T10:25:44.308Z,23.94
2022-07-28T10:26:48.649Z,23.95
2022-07-28T10:27:50.747Z,23.94
2022-07-28T10:28:55.077Z,23.96
2022-07-28T10:29:58.983Z,23.97
2022-07-28T10:31:03.759Z,23.96
2022-07-28T10:32:07.865Z,23.97
2022-07-28T10:33:14.991Z,23.97
2022-07-28T10:34:24.823Z,23.99
2022-07-28T10:35:30.086Z,23.99
2022-07-28T10:36:33.368Z,24.02
2022-07-28T10:37:39.844Z,24.05
2022-07-28T10:38:42.876Z,24.07
2022-07-28T10:39:49.339Z,24.07
2022-07-28T10:40:52.272Z,24.07
2022-07-28T10:41:57.255Z,24.11
2022-07-28T10:43:00.357Z,24.11
2022-07-28T10:44:03.954Z,24.10
2022-07-28T10:45:10.045Z,24.13
2022-07-28T10:46:16.041Z,24.11
2022-07-28T10:47:20.582Z,24.08
2022-07-28T10:48:23.648Z,24.07
2022-07-28T10:49:32.771Z,24.06
2022-07-28T10:50:37.048Z,24.08
2022-07-28T10:52:01.275Z,24.06
2022-07-28T10:53:06.949Z,24.04
2022-07-28T10:54:17.738Z,24.06
2022-07-28T10:55:37.227Z,24.10
2022-07-28T10:57:04.801Z,24.13
2022-07-28T10:58:14.428Z,24.15
2022-07-28T10:59:32.020Z,24.17
2022-07-28T11:00:53.066Z,24.19
2022-07-28T11:01:58.524Z,24.21
2022-07-28T11:03:02.254Z,24.23
2022-07-28T11:04:52.143Z,24.23
2022-07-28T11:05:56.470Z,24.16
2022-07-28T11:07:10.054Z,24.12
2022-07-28T11:08:30.152Z,24.14
2022-07-28T11:09:31.762Z,24.16
2022-07-28T11:10:46.657Z,24.18
2022-07-28T11:11:52.294Z,24.19
2022-07-28T11:12:56.409Z,24.18
2022-07-28T11:14:32.036Z,24.14
2022-07-28T11:15:36.145Z,24.16
2022-07-28T11:16:37.955Z,24.18
2022-07-28T11:17:57.391Z,24.22
2022-07-28T11:19:07.787Z,24.25
2022-07-28T11:21:08.666Z,24.23
2022-07-28T11:22:28.295Z,24.25
2022-07-28T11:23:46.695Z,24.28
2022-07-28T11:25:22.333Z,24.28
2022-07-28T11:26:30.774Z,24.27
2022-07-28T11:28:04.458Z,24.27
2022-07-28T11:29:16.565Z,24.29
2022-07-28T11:30:53.312Z,24.27
2022-07-28T11:32:06.312Z,24.26
2022-07-28T11:33:09.153Z,24.31
2022-07-28T11:34:11.970Z,24.33
2022-07-28T11:35:14.914Z,24.35
2022-07-28T11:36:18.830Z,24.38
2022-07-28T11:37:20.458Z,24.43
2022-07-28T11:38:23.774Z,24.47
2022-07-28T11:39:27.728Z,24.52
2022-07-28T11:40:31.295Z,24.56
2022-07-28T11:41:35.598Z,24.56
2022-07-28T11:42:37.319Z,24.59
2022-07-28T11:43:40.983Z,24.62
2022-07-28T11:44:43.869Z,24.64
2022-07-28T11:45:50.310Z,24.67
2022-07-28T11:47:17.096Z,24.68
2022-07-28T11:48:21.400Z,24.70
2022-07-28T11:49:27.403Z,24.71
2022-07-28T11:50:30.349Z,24.76
2022-07-28T11:51:38.809Z,24.77
2022-07-28T11:52:56.599Z,24.79
2022-07-28T11:53:58.246Z,24.80
2022-07-28T11:55:02.025Z,24.84
2022-07-28T11:56:05.145Z,24.86
2022-07-28T11:57:09.792Z,24.88
2022-07-28T11:58:25.526Z,24.88
2022-07-28T11:59:36.437Z,24.90
2022-07-28T12:00:39.509Z,24.89
2022-07-28T12:01:52.063Z,24.92
2022-07-28T12:02:54.712Z,24.93
2022-07-28T12:03:59.137Z,24.96
2022-07-28T12:05:10.937Z,24.99
2022-07-28T12:06:13.362Z,25.03
2022-07-28T12:07:18.413Z,25.10
2022-07-28T12:08:21.056Z,25.12
2022-07-28T12:09:37.068Z,25.16
2022-07-28T12:10:54.529Z,25.20
2022-07-28T12:11:57.163Z,25.23
2022-07-28T12:13:02.080Z,25.27
2022-07-28T12:14:05.375Z,25.33
2022-07-28T12:15:08.801Z,25.36
2022-07-28T12:16:11.065Z,25.40
2022-07-28T12:17:14.903Z,25.46
2022-07-28T12:18:17.905Z,25.49
2022-07-28T12:19:20.360Z,25.53
2022-07-28T12:20:23.175Z,25.57
2022-07-28T12:21:37.305Z,25.62
2022-07-28T12:22:58.266Z,25.66
2022-07-28T12:24:01.040Z,25.69
2022-07-28T12:25:04.397Z,25.69
2022-07-28T12:26:34.485Z,25.69
2022-07-28T12:27:45.902Z,25.72
2022-07-28T12:28:51.259Z,25.73
2022-07-28T12:29:57.553Z,25.73
2022-07-28T12:31:10.425Z,25.69
2022-07-28T12:32:13.025Z,25.66
2022-07-28T12:33:23.860Z,25.64
2022-07-28T12:34:30.280Z,25.62
2022-07-28T12:35:32.039Z,25.63
2022-07-28T12:36:35.516Z,25.63
2022-07-28T12:37:37.583Z,25.63
2022-07-28T12:38:41.581Z,25.63
2022-07-28T12:39:44.195Z,25.64
2022-07-28T12:40:48.016Z,25.65
2022-07-28T12:42:00.189Z,25.67
2022-07-28T12:43:03.069Z,25.69
2022-07-28T12:44:06.654Z,25.70
2022-07-28T12:45:10.226Z,25.69
2022-07-28T12:46:12.834Z,25.68
2022-07-28T12:47:15.607Z,25.65
2022-07-28T12:48:19.734Z,25.62
2022-07-28T12:49:22.002Z,25.57
2022-07-28T12:50:24.719Z,25.54
2022-07-28T12:51:34.170Z,25.53
2022-07-28T12:52:37.174Z,25.51
2022-07-28T12:53:52.823Z,25.54
2022-07-28T12:54:56.404Z,25.55
2022-07-28T12:56:02.431Z,25.58
2022-07-28T12:57:04.515Z,25.58
2022-07-28T12:58:08.154Z,25.57
2022-07-28T12:59:11.117Z,25.55
2022-07-28T13:00:14.356Z,25.57
2022-07-28T13:01:17.139Z,25.62
2022-07-28T13:02:37.071Z,25.65
2022-07-28T13:03:52.007Z,25.68
2022-07-28T13:04:56.422Z,25.69
2022-07-28T13:06:09.035Z,25.71
2022-07-28T13:07:13.737Z,25.75
2022-07-28T13:08:15.387Z,25.80
2022-07-28T13:09:32.663Z,25.87
2022-07-28T13:10:46.986Z,25.95
2022-07-28T13:11:49.713Z,26.00
2022-07-28T13:13:01.509Z,26.07
2022-07-28T13:14:04.449Z,26.12
2022-07-28T13:15:16.733Z,26.18
2022-07-28T13:16:20.944Z,26.22
2022-07-28T13:17:26.418Z,26.28
2022-07-28T13:18:39.745Z,26.34
2022-07-28T13:19:43.457Z,26.39
2022-07-28T13:20:50.272Z,26.41
2022-07-28T13:22:01.642Z,26.43
2022-07-28T13:23:05.534Z,26.44
2022-07-28T13:24:10.134Z,26.45
2022-07-28T13:25:15.063Z,26.48
2022-07-28T13:26:16.687Z,26.48
2022-07-28T13:27:19.272Z,26.49
2022-07-28T13:28:25.465Z,26.53
2022-07-28T13:29:28.191Z,26.55
2022-07-28T13:30:30.799Z,26.57
2022-07-28T13:31:35.600Z,26.57
2022-07-28T13:32:38.788Z,26.56
2022-07-28T13:33:45.368Z,26.59
2022-07-28T13:34:48.462Z,26.60
2022-07-28T13:35:50.409Z,26.61
2022-07-28T13:36:53.248Z,26.58
2022-07-28T13:37:54.875Z,26.55
2022-07-28T13:38:57.680Z,26.53
2022-07-28T13:40:00.603Z,26.52
2022-07-28T13:41:04.721Z,26.51
2022-07-28T13:42:07.794Z,26.52
2022-07-28T13:43:12.111Z,26.53
2022-07-28T13:44:14.898Z,26.54
2022-07-28T13:45:21.457Z,26.55
2022-07-28T13:46:24.993Z,26.57
2022-07-28T13:47:38.950Z,26.56
2022-07-28T13:48:57.913Z,26.55
2022-07-28T13:50:02.706Z,26.51
2022-07-28T13:51:04.347Z,26.51
2022-07-28T13:52:13.296Z,26.51
2022-07-28T13:53:16.085Z,26.51
2022-07-28T13:54:18.100Z,26.51
2022-07-28T13:55:22.954Z,26.55
2022-07-28T13:56:26.181Z,26.56
2022-07-28T13:57:28.767Z,26.57
2022-07-28T13:58:31.513Z,26.57
2022-07-28T13:59:36.125Z,26.58
2022-07-28T14:00:39.090Z,26.56